sensor_id;sensor_type;location;lat;lon;timestamp;pressure;altitude;pressure_sealevel;temperature;humidity
58534;BME280;44109;52.398;7.024;2023-02-28T00:01:22;102951.06;;;1.71;100.00
58534;BME280;44109;52.398;7.024;2023-02-28T00:03:50;102949.75;;;1.74;100.00
58534;BME280;44109;52.398;7.024;2023-02-28T00:06:18;102961.56;;;1.80;100.00
58534;BME280;44109;52.398;7.024;2023-02-28T00:08:48;102953.34;;;1.80;100.00
58534;BME280;44109;52.398;7.024;2023-02-28T00:11:16;102934.06;;;1.64;100.00
58534;BME280;44109;52.398;7.024;2023-02-28T00:13:45;102937.75;;;1.80;100.00
58534;BME280;44109;52.398;7.024;2023-02-28T00:16:15;102949.66;;;1.91;100.00
58534;BME280;44109;52.398;7.024;2023-02-28T00:18:44;102929.41;;;1.92;100.00
58534;BME280;44109;52.398;7.024;2023-02-28T00:21:13;102940.66;;;1.95;100.00
58534;BME280;44109;52.398;7.024;2023-02-28T00:23:41;102946.44;;;1.99;100.00
58534;BME280;44109;52.398;7.024;2023-02-28T00:26:11;102945.09;;;2.01;100.00
58534;BME280;44109;52.398;7.024;2023-02-28T00:28:39;102910.50;;;1.63;100.00
58534;BME280;44109;52.398;7.024;2023-02-28T00:31:06;102956.25;;;1.95;100.00
58534;BME280;44109;52.398;7.024;2023-02-28T00:33:34;102946.75;;;2.02;100.00
58534;BME280;44109;52.398;7.024;2023-02-28T00:36:04;102955.00;;;2.08;100.00
58534;BME280;44109;52.398;7.024;2023-02-28T00:38:33;102946.75;;;2.02;100.00
58534;BME280;44109;52.398;7.024;2023-02-28T00:41:01;102944.03;;;2.08;100.00
58534;BME280;44109;52.398;7.024;2023-02-28T00:43:33;102941.06;;;2.09;100.00
58534;BME280;44109;52.398;7.024;2023-02-28T00:46:03;102947.13;;;2.16;100.00
58534;BME280;44109;52.398;7.024;2023-02-28T00:48:31;102938.84;;;2.06;100.00
58534;BME280;44109;52.398;7.024;2023-02-28T00:50:59;102936.47;;;2.15;100.00
58534;BME280;44109;52.398;7.024;2023-02-28T00:53:27;102922.16;;;2.08;100.00
58534;BME280;44109;52.398;7.024;2023-02-28T00:55:55;102932.97;;;2.24;100.00
58534;BME280;44109;52.398;7.024;2023-02-28T00:58:23;102931.88;;;2.25;100.00
58534;BME280;44109;52.398;7.024;2023-02-28T01:00:53;102923.59;;;2.15;100.00
58534;BME280;44109;52.398;7.024;2023-02-28T01:03:22;102934.91;;;2.24;100.00
58534;BME280;44109;52.398;7.024;2023-02-28T01:05:50;102934.09;;;2.28;100.00
58534;BME280;44109;52.398;7.024;2023-02-28T01:08:19;102935.78;;;2.35;100.00
58534;BME280;44109;52.398;7.024;2023-02-28T01:10:47;102925.66;;;2.35;100.00
58534;BME280;44109;52.398;7.024;2023-02-28T01:13:15;102932.03;;;2.41;100.00
58534;BME280;44109;52.398;7.024;2023-02-28T01:15:45;102930.66;;;2.43;100.00
58534;BME280;44109;52.398;7.024;2023-02-28T01:18:17;102936.44;;;2.47;100.00
58534;BME280;44109;52.398;7.024;2023-02-28T01:20:46;102923.28;;;2.49;100.00
58534;BME280;44109;52.398;7.024;2023-02-28T01:23:13;102920.00;;;2.47;100.00
58534;BME280;44109;52.398;7.024;2023-02-28T01:25:41;102937.56;;;2.51;100.00
58534;BME280;44109;52.398;7.024;2023-02-28T01:28:09;102869.16;;;2.19;100.00
58534;BME280;44109;52.398;7.024;2023-02-28T01:30:36;102934.03;;;2.56;100.00
58534;BME280;44109;52.398;7.024;2023-02-28T01:33:04;102939.25;;;2.57;100.00
58534;BME280;44109;52.398;7.024;2023-02-28T01:35:34;102923.09;;;2.56;100.00
58534;BME280;44109;52.398;7.024;2023-02-28T01:38:02;102920.06;;;2.57;100.00
58534;BME280;44109;52.398;7.024;2023-02-28T01:40:30;102917.34;;;2.57;100.00
58534;BME280;44109;52.398;7.024;2023-02-28T01:42:58;102933.78;;;2.57;100.00
58534;BME280;44109;52.398;7.024;2023-02-28T01:45:27;102937.09;;;2.59;100.00
58534;BME280;44109;52.398;7.024;2023-02-28T01:47:59;102928.03;;;2.59;100.00
58534;BME280;44109;52.398;7.024;2023-02-28T01:50:36;102927.78;;;2.60;100.00
58534;BME280;44109;52.398;7.024;2023-02-28T01:53:12;102932.69;;;2.58;100.00
58534;BME280;44109;52.398;7.024;2023-02-28T01:55:47;102932.94;;;2.57;100.00
58534;BME280;44109;52.398;7.024;2023-02-28T01:58:19;102937.03;;;2.54;100.00
58534;BME280;44109;52.398;7.024;2023-02-28T02:00:48;102934.88;;;2.56;100.00
58534;BME280;44109;52.398;7.024;2023-02-28T02:03:18;102929.94;;;2.58;100.00
58534;BME280;44109;52.398;7.024;2023-02-28T02:05:48;102926.94;;;2.60;100.00
58534;BME280;44109;52.398;7.024;2023-02-28T02:08:19;102928.53;;;2.50;100.00
58534;BME280;44109;52.398;7.024;2023-02-28T02:10:50;102933.56;;;2.32;100.00
58534;BME280;44109;52.398;7.024;2023-02-28T02:13:39;102929.66;;;2.22;100.00
58534;BME280;44109;52.398;7.024;2023-02-28T02:16:41;102934.75;;;2.41;100.00
58534;BME280;44109;52.398;7.024;2023-02-28T02:25:56;102932.47;;;2.27;100.00
58534;BME280;44109;52.398;7.024;2023-02-28T02:28:56;102925.94;;;2.34;100.00
58534;BME280;44109;52.398;7.024;2023-02-28T02:32:02;102923.28;;;2.49;100.00
58534;BME280;44109;52.398;7.024;2023-02-28T02:35:02;102925.25;;;2.53;100.00
58534;BME280;44109;52.398;7.024;2023-02-28T02:37:40;102929.84;;;2.43;100.00
58534;BME280;44109;52.398;7.024;2023-02-28T02:40:18;102928.25;;;2.52;100.00
58534;BME280;44109;52.398;7.024;2023-02-28T02:42:52;102932.13;;;2.56;100.00
58534;BME280;44109;52.398;7.024;2023-02-28T02:45:31;102925.03;;;2.60;100.00
58534;BME280;44109;52.398;7.024;2023-02-28T02:48:04;102904.69;;;2.51;100.00
58534;BME280;44109;52.398;7.024;2023-02-28T02:50:41;102922.88;;;2.30;100.00
58534;BME280;44109;52.398;7.024;2023-02-28T02:53:14;102920.19;;;2.03;100.00
58534;BME280;44109;52.398;7.024;2023-02-28T02:55:48;102931.50;;;2.12;100.00
58534;BME280;44109;52.398;7.024;2023-02-28T02:58:23;102924.84;;;2.35;100.00
58534;BME280;44109;52.398;7.024;2023-02-28T03:00:57;102931.44;;;2.39;100.00
58534;BME280;44109;52.398;7.024;2023-02-28T03:03:28;102935.34;;;2.48;100.00
58534;BME280;44109;52.398;7.024;2023-02-28T03:06:00;102929.66;;;2.54;100.00
58534;BME280;44109;52.398;7.024;2023-02-28T03:08:33;102920.06;;;2.57;100.00
58534;BME280;44109;52.398;7.024;2023-02-28T03:11:04;102917.91;;;2.59;100.00
58534;BME280;44109;52.398;7.024;2023-02-28T03:14:04;102920.66;;;2.59;100.00
58534;BME280;44109;52.398;7.024;2023-02-28T03:17:12;102919.56;;;2.60;100.00
58534;BME280;44109;52.398;7.024;2023-02-28T03:20:09;102911.56;;;2.59;100.00
58534;BME280;44109;52.398;7.024;2023-02-28T03:22:58;102907.47;;;2.56;100.00
58534;BME280;44109;52.398;7.024;2023-02-28T03:25:42;102913.47;;;2.53;100.00
58534;BME280;44109;52.398;7.024;2023-02-28T03:28:24;102908.00;;;2.53;100.00
58534;BME280;44109;52.398;7.024;2023-02-28T03:31:03;102900.88;;;2.52;100.00
58534;BME280;44109;52.398;7.024;2023-02-28T03:33:41;102908.53;;;2.50;100.00
58534;BME280;44109;52.398;7.024;2023-02-28T03:36:14;102915.03;;;2.44;100.00
58534;BME280;44109;52.398;7.024;2023-02-28T03:38:51;102920.44;;;2.34;100.00
58534;BME280;44109;52.398;7.024;2023-02-28T03:41:25;102918.50;;;2.29;100.00
58534;BME280;44109;52.398;7.024;2023-02-28T03:44:04;102925.03;;;2.23;100.00
58534;BME280;44109;52.398;7.024;2023-02-28T03:46:45;102920.34;;;2.18;100.00
58534;BME280;44109;52.398;7.024;2023-02-28T03:49:19;102916.53;;;2.24;100.00
58534;BME280;44109;52.398;7.024;2023-02-28T03:51:52;102895.19;;;2.26;100.00
58534;BME280;44109;52.398;7.024;2023-02-28T03:54:27;102919.81;;;2.21;100.00
58534;BME280;44109;52.398;7.024;2023-02-28T03:57:05;102895.09;;;2.11;100.00
58534;BME280;44109;52.398;7.024;2023-02-28T03:59:42;102906.94;;;2.22;100.00
58534;BME280;44109;52.398;7.024;2023-02-28T04:02:15;102903.44;;;2.32;100.00
58534;BME280;44109;52.398;7.024;2023-02-28T04:04:44;102902.38;;;2.33;100.00
58534;BME280;44109;52.398;7.024;2023-02-28T04:07:14;102906.72;;;2.28;100.00
58534;BME280;44109;52.398;7.024;2023-02-28T04:09:44;102897.09;;;2.26;100.00
58534;BME280;44109;52.398;7.024;2023-02-28T04:12:11;102912.19;;;2.28;100.00
58534;BME280;44109;52.398;7.024;2023-02-28T04:14:39;102903.22;;;2.01;100.00
58534;BME280;44109;52.398;7.024;2023-02-28T04:17:07;102902.81;;;1.87;100.00
58534;BME280;44109;52.398;7.024;2023-02-28T04:19:34;102915.44;;;1.93;100.00
58534;BME280;44109;52.398;7.024;2023-02-28T04:22:02;102912.56;;;2.05;100.00
58534;BME280;44109;52.398;7.024;2023-02-28T04:24:29;102909.38;;;1.59;100.00
58534;BME280;44109;52.398;7.024;2023-02-28T04:26:58;102915.09;;;1.85;100.00
58534;BME280;44109;52.398;7.024;2023-02-28T04:29:28;102918.53;;;2.02;100.00
58534;BME280;44109;52.398;7.024;2023-02-28T04:31:57;102919.06;;;1.72;100.00
58534;BME280;44109;52.398;7.024;2023-02-28T04:34:26;102897.00;;;1.78;100.00
58534;BME280;44109;52.398;7.024;2023-02-28T04:36:55;102912.44;;;1.95;100.00
58534;BME280;44109;52.398;7.024;2023-02-28T04:39:24;102912.28;;;2.07;100.00
58534;BME280;44109;52.398;7.024;2023-02-28T04:41:51;102915.09;;;2.17;100.00
58534;BME280;44109;52.398;7.024;2023-02-28T04:44:21;102916.28;;;2.26;100.00
58534;BME280;44109;52.398;7.024;2023-02-28T04:46:49;102912.72;;;2.25;100.00
58534;BME280;44109;52.398;7.024;2023-02-28T04:49:17;102913.03;;;2.29;100.00
58534;BME280;44109;52.398;7.024;2023-02-28T04:51:44;102911.06;;;2.24;100.00
58534;BME280;44109;52.398;7.024;2023-02-28T04:54:12;102904.22;;;2.27;100.00
58534;BME280;44109;52.398;7.024;2023-02-28T04:56:41;102908.25;;;2.14;100.00
58534;BME280;44109;52.398;7.024;2023-02-28T04:59:09;102915.66;;;2.14;100.00
58534;BME280;44109;52.398;7.024;2023-02-28T05:01:38;102911.59;;;2.21;100.00
58534;BME280;44109;52.398;7.024;2023-02-28T05:04:06;102908.28;;;2.19;100.00
58534;BME280;44109;52.398;7.024;2023-02-28T05:06:33;102909.94;;;2.20;100.00
58534;BME280;44109;52.398;7.024;2023-02-28T05:09:01;102920.91;;;2.20;100.00
58534;BME280;44109;52.398;7.024;2023-02-28T05:11:31;102909.09;;;2.15;100.00
58534;BME280;44109;52.398;7.024;2023-02-28T05:14:02;102921.44;;;2.22;100.00
58534;BME280;44109;52.398;7.024;2023-02-28T05:16:31;102922.56;;;2.26;100.00
58534;BME280;44109;52.398;7.024;2023-02-28T05:19:00;102930.28;;;2.29;100.00
58534;BME280;44109;52.398;7.024;2023-02-28T05:21:29;102917.88;;;2.22;100.00
58534;BME280;44109;52.398;7.024;2023-02-28T05:24:00;102925.94;;;2.34;100.00
58534;BME280;44109;52.398;7.024;2023-02-28T05:26:30;102920.97;;;2.31;100.00
58534;BME280;44109;52.398;7.024;2023-02-28T05:28:58;102927.06;;;2.38;100.00
58534;BME280;44109;52.398;7.024;2023-02-28T05:31:25;102934.19;;;2.39;100.00
58534;BME280;44109;52.398;7.024;2023-02-28T05:33:53;102914.16;;;2.33;100.00
58534;BME280;44109;52.398;7.024;2023-02-28T05:36:22;102929.28;;;2.41;100.00
58534;BME280;44109;52.398;7.024;2023-02-28T05:38:50;102932.84;;;2.41;100.00
58534;BME280;44109;52.398;7.024;2023-02-28T05:41:19;102929.22;;;2.36;100.00
58534;BME280;44109;52.398;7.024;2023-02-28T05:43:48;102921.56;;;2.33;100.00
58534;BME280;44109;52.398;7.024;2023-02-28T05:46:16;102932.22;;;2.34;100.00
58534;BME280;44109;52.398;7.024;2023-02-28T05:48:46;102932.50;;;2.33;100.00
58534;BME280;44109;52.398;7.024;2023-02-28T05:51:15;102921.50;;;2.27;100.00
58534;BME280;44109;52.398;7.024;2023-02-28T05:53:44;102937.41;;;2.31;100.00
58534;BME280;44109;52.398;7.024;2023-02-28T05:56:14;102938.47;;;2.24;100.00
58534;BME280;44109;52.398;7.024;2023-02-28T05:58:41;102941.47;;;2.23;100.00
58534;BME280;44109;52.398;7.024;2023-02-28T06:01:24;102927.84;;;2.01;100.00
58534;BME280;44109;52.398;7.024;2023-02-28T06:03:59;102960.03;;;2.21;100.00
58534;BME280;44109;52.398;7.024;2023-02-28T06:06:27;102957.59;;;2.19;100.00
58534;BME280;44109;52.398;7.024;2023-02-28T06:08:57;102951.84;;;2.21;100.00
58534;BME280;44109;52.398;7.024;2023-02-28T06:11:25;102940.28;;;2.14;100.00
58534;BME280;44109;52.398;7.024;2023-02-28T06:13:54;102960.09;;;2.26;100.00
58534;BME280;44109;52.398;7.024;2023-02-28T06:16:23;102932.91;;;2.14;100.00
58534;BME280;44109;52.398;7.024;2023-02-28T06:18:51;102959.84;;;2.27;100.00
58534;BME280;44109;52.398;7.024;2023-02-28T06:21:22;102963.97;;;2.30;100.00
58534;BME280;44109;52.398;7.024;2023-02-28T06:23:50;102952.16;;;2.24;100.00
58534;BME280;44109;52.398;7.024;2023-02-28T06:26:19;102964.28;;;2.34;100.00
58534;BME280;44109;52.398;7.024;2023-02-28T06:28:47;102979.09;;;2.38;100.00
58534;BME280;44109;52.398;7.024;2023-02-28T06:31:17;102983.47;;;2.39;100.00
58534;BME280;44109;52.398;7.024;2023-02-28T06:33:46;102974.97;;;2.35;100.00
58534;BME280;44109;52.398;7.024;2023-02-28T06:36:15;102957.03;;;2.22;100.00
58534;BME280;44109;52.398;7.024;2023-02-28T06:38:44;102987.03;;;2.39;100.00
58534;BME280;44109;52.398;7.024;2023-02-28T06:41:11;102927.38;;;2.09;100.00
58534;BME280;44109;52.398;7.024;2023-02-28T06:43:41;102981.66;;;2.49;100.00
58534;BME280;44109;52.398;7.024;2023-02-28T06:46:12;102980.31;;;2.52;100.00
58534;BME280;44109;52.398;7.024;2023-02-28T06:48:40;102985.56;;;2.59;100.00
58534;BME280;44109;52.398;7.024;2023-02-28T06:51:12;102978.69;;;2.56;100.00
58534;BME280;44109;52.398;7.024;2023-02-28T06:53:41;102996.63;;;2.69;100.00
58534;BME280;44109;52.398;7.024;2023-02-28T06:56:11;103001.31;;;2.73;100.00
58534;BME280;44109;52.398;7.024;2023-02-28T06:58:41;102999.16;;;2.80;100.00
58534;BME280;44109;52.398;7.024;2023-02-28T07:01:09;103002.50;;;2.88;100.00
58534;BME280;44109;52.398;7.024;2023-02-28T07:03:37;102951.06;;;2.63;100.00
58534;BME280;44109;52.398;7.024;2023-02-28T07:06:05;103000.94;;;3.02;100.00
58534;BME280;44109;52.398;7.024;2023-02-28T07:08:33;102994.38;;;3.08;100.00
58534;BME280;44109;52.398;7.024;2023-02-28T07:11:03;103001.63;;;3.24;100.00
58534;BME280;44109;52.398;7.024;2023-02-28T07:13:31;103005.00;;;3.37;100.00
58534;BME280;44109;52.398;7.024;2023-02-28T07:16:03;103004.72;;;3.43;100.00
58534;BME280;44109;52.398;7.024;2023-02-28T07:18:32;103006.09;;;3.41;100.00
58534;BME280;44109;52.398;7.024;2023-02-28T07:21:01;103009.41;;;3.43;100.00
58534;BME280;44109;52.398;7.024;2023-02-28T07:23:29;103000.88;;;3.39;100.00
58534;BME280;44109;52.398;7.024;2023-02-28T07:25:57;103002.75;;;3.28;100.00
58534;BME280;44109;52.398;7.024;2023-02-28T07:28:25;103002.72;;;3.23;100.00
58534;BME280;44109;52.398;7.024;2023-02-28T07:30:53;103008.13;;;3.13;100.00
58534;BME280;44109;52.398;7.024;2023-02-28T07:33:22;103008.34;;;3.01;100.00
58534;BME280;44109;52.398;7.024;2023-02-28T07:35:50;103014.03;;;2.95;100.00
58534;BME280;44109;52.398;7.024;2023-02-28T07:38:18;103011.56;;;2.93;100.00
58534;BME280;44109;52.398;7.024;2023-02-28T07:40:46;103007.28;;;3.08;100.00
58534;BME280;44109;52.398;7.024;2023-02-28T07:43:13;103017.09;;;3.41;100.00
58534;BME280;44109;52.398;7.024;2023-02-28T07:45:41;103021.66;;;3.88;100.00
58534;BME280;44109;52.398;7.024;2023-02-28T07:48:08;103024.50;;;4.28;100.00
58534;BME280;44109;52.398;7.024;2023-02-28T07:50:37;103019.56;;;4.81;100.00
58534;BME280;44109;52.398;7.024;2023-02-28T07:53:05;103027.16;;;5.30;100.00
58534;BME280;44109;52.398;7.024;2023-02-28T07:55:33;103030.28;;;5.78;100.00
58534;BME280;44109;52.398;7.024;2023-02-28T07:58:01;103027.34;;;6.19;100.00
58534;BME280;44109;52.398;7.024;2023-02-28T08:00:28;103030.94;;;6.59;100.00
58534;BME280;44109;52.398;7.024;2023-02-28T08:02:57;103033.59;;;6.98;100.00
58534;BME280;44109;52.398;7.024;2023-02-28T08:05:25;103019.66;;;7.37;100.00
58534;BME280;44109;52.398;7.024;2023-02-28T08:07:54;103029.19;;;7.50;100.00
58534;BME280;44109;52.398;7.024;2023-02-28T08:10:22;103022.25;;;7.96;100.00
58534;BME280;44109;52.398;7.024;2023-02-28T08:12:53;103038.53;;;8.54;100.00
58534;BME280;44109;52.398;7.024;2023-02-28T08:15:20;103037.34;;;8.93;100.00
58534;BME280;44109;52.398;7.024;2023-02-28T08:17:48;103034.41;;;9.17;100.00
58534;BME280;44109;52.398;7.024;2023-02-28T08:20:15;103034.03;;;9.51;100.00
58534;BME280;44109;52.398;7.024;2023-02-28T08:22:43;103032.41;;;9.36;100.00
58534;BME280;44109;52.398;7.024;2023-02-28T08:25:12;103031.03;;;9.88;100.00
58534;BME280;44109;52.398;7.024;2023-02-28T08:27:40;103031.09;;;10.11;100.00
58534;BME280;44109;52.398;7.024;2023-02-28T08:30:10;103008.34;;;10.36;100.00
58534;BME280;44109;52.398;7.024;2023-02-28T08:32:38;103026.41;;;10.79;100.00
58534;BME280;44109;52.398;7.024;2023-02-28T08:35:07;103026.59;;;11.05;100.00
58534;BME280;44109;52.398;7.024;2023-02-28T08:37:36;103019.31;;;11.17;100.00
58534;BME280;44109;52.398;7.024;2023-02-28T08:40:05;103021.94;;;11.23;96.48
58534;BME280;44109;52.398;7.024;2023-02-28T08:42:35;103027.66;;;11.26;90.11
58534;BME280;44109;52.398;7.024;2023-02-28T08:45:03;103028.16;;;11.28;93.23
58534;BME280;44109;52.398;7.024;2023-02-28T08:47:31;103026.41;;;11.41;87.79
58534;BME280;44109;52.398;7.024;2023-02-28T08:49:59;103023.22;;;11.65;79.03
58534;BME280;44109;52.398;7.024;2023-02-28T08:52:26;103012.56;;;11.50;74.66
58534;BME280;44109;52.398;7.024;2023-02-28T08:54:54;103029.16;;;11.32;71.54
58534;BME280;44109;52.398;7.024;2023-02-28T08:57:22;103032.53;;;10.89;64.36
58534;BME280;44109;52.398;7.024;2023-02-28T08:59:53;103033.06;;;10.47;62.77
58534;BME280;44109;52.398;7.024;2023-02-28T09:02:21;103030.13;;;10.29;59.35
58534;BME280;44109;52.398;7.024;2023-02-28T09:04:48;103036.53;;;10.02;56.79
58534;BME280;44109;52.398;7.024;2023-02-28T09:07:16;103034.94;;;9.87;59.45
58534;BME280;44109;52.398;7.024;2023-02-28T09:09:43;103025.09;;;9.81;60.78
58534;BME280;44109;52.398;7.024;2023-02-28T09:12:21;103034.94;;;9.87;68.45
58534;BME280;44109;52.398;7.024;2023-02-28T09:14:48;103028.16;;;9.80;71.63
58534;BME280;44109;52.398;7.024;2023-02-28T09:17:18;103039.47;;;9.56;54.79
58534;BME280;44109;52.398;7.024;2023-02-28T09:19:47;103031.66;;;9.44;59.28
58534;BME280;44109;52.398;7.024;2023-02-28T09:22:15;103028.34;;;9.01;53.59
58534;BME280;44109;52.398;7.024;2023-02-28T09:24:43;103029.88;;;9.07;56.42
58534;BME280;44109;52.398;7.024;2023-02-28T09:27:11;103029.66;;;9.03;56.49
58534;BME280;44109;52.398;7.024;2023-02-28T09:29:38;103018.91;;;9.02;56.57
58534;BME280;44109;52.398;7.024;2023-02-28T09:32:06;103023.88;;;8.72;50.77
58534;BME280;44109;52.398;7.024;2023-02-28T09:34:35;103024.06;;;8.43;48.63
58534;BME280;44109;52.398;7.024;2023-02-28T09:37:03;103025.50;;;8.41;53.04
58534;BME280;44109;52.398;7.024;2023-02-28T09:39:30;103015.75;;;8.24;51.03
58534;BME280;44109;52.398;7.024;2023-02-28T09:41:58;103027.28;;;8.31;53.27
58534;BME280;44109;52.398;7.024;2023-02-28T09:44:30;103020.38;;;8.29;54.05
58534;BME280;44109;52.398;7.024;2023-02-28T09:47:08;103022.31;;;8.28;48.47
58534;BME280;44109;52.398;7.024;2023-02-28T09:49:44;103022.50;;;8.18;53.18
58534;BME280;44109;52.398;7.024;2023-02-28T09:52:17;103028.53;;;8.01;47.75
58534;BME280;44109;52.398;7.024;2023-02-28T09:54:46;103027.72;;;8.01;48.11
58534;BME280;44109;52.398;7.024;2023-02-28T09:57:18;103016.03;;;8.04;50.16
58534;BME280;44109;52.398;7.024;2023-02-28T10:00:00;103004.53;;;7.97;51.52
58534;BME280;44109;52.398;7.024;2023-02-28T10:02:48;103010.47;;;8.09;51.19
58534;BME280;44109;52.398;7.024;2023-02-28T10:05:29;103016.34;;;8.21;50.89
58534;BME280;44109;52.398;7.024;2023-02-28T10:08:07;103015.69;;;8.10;49.78
58534;BME280;44109;52.398;7.024;2023-02-28T10:10:43;103008.28;;;8.06;50.04
58534;BME280;44109;52.398;7.024;2023-02-28T10:13:17;103013.66;;;8.16;47.97
58534;BME280;44109;52.398;7.024;2023-02-28T10:15:52;103011.44;;;8.18;46.82
58534;BME280;44109;52.398;7.024;2023-02-28T10:18:28;103004.19;;;8.22;47.68
58534;BME280;44109;52.398;7.024;2023-02-28T10:21:02;103005.44;;;8.49;49.82
58534;BME280;44109;52.398;7.024;2023-02-28T10:23:34;103009.28;;;8.67;48.27
58534;BME280;44109;52.398;7.024;2023-02-28T10:26:11;102976.34;;;8.51;46.06
58534;BME280;44109;52.398;7.024;2023-02-28T10:28:42;103011.84;;;8.63;44.55
58534;BME280;44109;52.398;7.024;2023-02-28T10:31:11;103009.00;;;8.30;43.98
58534;BME280;44109;52.398;7.024;2023-02-28T10:33:44;103002.16;;;8.09;44.26
58534;BME280;44109;52.398;7.024;2023-02-28T10:36:16;103009.56;;;8.32;44.74
58534;BME280;44109;52.398;7.024;2023-02-28T10:38:46;102997.81;;;8.59;46.31
58534;BME280;44109;52.398;7.024;2023-02-28T10:41:15;103011.28;;;8.47;40.81
58534;BME280;44109;52.398;7.024;2023-02-28T10:44:12;102998.25;;;8.48;43.24
58534;BME280;44109;52.398;7.024;2023-02-28T10:46:42;103012.97;;;8.62;43.03
58534;BME280;44109;52.398;7.024;2023-02-28T10:49:17;103016.94;;;8.56;43.23
58534;BME280;44109;52.398;7.024;2023-02-28T10:51:52;103013.09;;;8.71;43.55
58534;BME280;44109;52.398;7.024;2023-02-28T10:54:26;103016.25;;;9.10;44.38
58534;BME280;44109;52.398;7.024;2023-02-28T10:57:11;103004.84;;;8.33;41.67
58534;BME280;44109;52.398;7.024;2023-02-28T10:59:45;103004.13;;;8.08;41.47
58534;BME280;44109;52.398;7.024;2023-02-28T11:02:32;103004.06;;;7.89;43.01
58534;BME280;44109;52.398;7.024;2023-02-28T11:05:02;102996.41;;;7.86;42.14
58534;BME280;44109;52.398;7.024;2023-02-28T11:07:53;102994.50;;;7.63;41.41
58534;BME280;44109;52.398;7.024;2023-02-28T11:10:25;102994.94;;;7.51;43.39
58534;BME280;44109;52.398;7.024;2023-02-28T11:12:58;102983.34;;;7.25;44.06
58534;BME280;44109;52.398;7.024;2023-02-28T11:15:28;102991.19;;;7.42;41.67
58534;BME280;44109;52.398;7.024;2023-02-28T11:17:59;102966.91;;;7.15;44.03
58534;BME280;44109;52.398;7.024;2023-02-28T11:20:30;102983.78;;;7.14;42.09
58534;BME280;44109;52.398;7.024;2023-02-28T11:23:03;102987.78;;;6.73;41.13
58534;BME280;44109;52.398;7.024;2023-02-28T11:25:34;102982.66;;;6.91;44.45
58534;BME280;44109;52.398;7.024;2023-02-28T11:28:05;102983.06;;;7.03;45.46
58534;BME280;44109;52.398;7.024;2023-02-28T11:30:35;102984.84;;;7.18;42.69
58534;BME280;44109;52.398;7.024;2023-02-28T11:33:26;102980.66;;;7.20;43.62
58534;BME280;44109;52.398;7.024;2023-02-28T11:35:58;102971.06;;;6.89;42.19
58534;BME280;44109;52.398;7.024;2023-02-28T11:38:34;102965.25;;;6.90;43.75
58534;BME280;44109;52.398;7.024;2023-02-28T11:41:22;102968.69;;;7.06;44.75
58534;BME280;44109;52.398;7.024;2023-02-28T11:44:18;102971.00;;;6.94;41.78
58534;BME280;44109;52.398;7.024;2023-02-28T11:47:03;102971.56;;;6.67;44.21
58534;BME280;44109;52.398;7.024;2023-02-28T11:49:45;102964.66;;;6.69;42.89
58534;BME280;44109;52.398;7.024;2023-02-28T11:52:32;102968.22;;;6.70;44.50
58534;BME280;44109;52.398;7.024;2023-02-28T11:55:14;102967.00;;;6.81;44.93
58534;BME280;44109;52.398;7.024;2023-02-28T11:57:59;102952.28;;;6.61;43.04
58534;BME280;44109;52.398;7.024;2023-02-28T12:00:54;102956.31;;;6.74;43.64
58534;BME280;44109;52.398;7.024;2023-02-28T12:03:42;102956.88;;;6.71;44.55
58534;BME280;44109;52.398;7.024;2023-02-28T12:06:21;102962.78;;;6.89;46.20
58534;BME280;44109;52.398;7.024;2023-02-28T12:09:02;102956.75;;;6.86;44.53
58534;BME280;44109;52.398;7.024;2023-02-28T12:11:50;102951.44;;;6.66;43.12
58534;BME280;44109;52.398;7.024;2023-02-28T12:14:36;102928.59;;;6.60;46.22
58534;BME280;44109;52.398;7.024;2023-02-28T12:17:25;102952.94;;;6.82;46.13
58534;BME280;44109;52.398;7.024;2023-02-28T12:20:15;102939.66;;;6.84;45.17
58534;BME280;44109;52.398;7.024;2023-02-28T12:22:57;102941.31;;;7.09;45.88
58534;BME280;44109;52.398;7.024;2023-02-28T12:25:47;102932.75;;;6.87;43.77
58534;BME280;44109;52.398;7.024;2023-02-28T12:28:27;102921.97;;;6.85;43.86
58534;BME280;44109;52.398;7.024;2023-02-28T12:31:03;102928.56;;;6.90;43.96
58534;BME280;44109;52.398;7.024;2023-02-28T12:33:39;102925.28;;;6.64;45.35
58534;BME280;44109;52.398;7.024;2023-02-28T12:36:15;102914.63;;;6.76;44.83
58534;BME280;44109;52.398;7.024;2023-02-28T12:38:50;102914.06;;;6.79;43.83
58534;BME280;44109;52.398;7.024;2023-02-28T12:41:27;102921.81;;;7.01;44.14
58534;BME280;44109;52.398;7.024;2023-02-28T12:44:06;102916.25;;;7.06;43.42
58534;BME280;44109;52.398;7.024;2023-02-28T12:46:41;102909.84;;;6.86;44.19
58534;BME280;44109;52.398;7.024;2023-02-28T12:49:16;102895.00;;;6.82;42.92
58534;BME280;44109;52.398;7.024;2023-02-28T12:51:48;102898.34;;;6.79;44.87
58534;BME280;44109;52.398;7.024;2023-02-28T12:54:23;102898.81;;;6.86;41.92
58534;BME280;44109;52.398;7.024;2023-02-28T12:57:02;102895.75;;;6.88;43.29
58534;BME280;44109;52.398;7.024;2023-02-28T12:59:42;102893.81;;;6.89;44.02
58534;BME280;44109;52.398;7.024;2023-02-28T13:02:33;102887.84;;;6.81;43.26
58534;BME280;44109;52.398;7.024;2023-02-28T13:05:39;102877.19;;;6.94;44.26
58534;BME280;44109;52.398;7.024;2023-02-28T13:09:03;102876.03;;;7.00;42.41
58534;BME280;44109;52.398;7.024;2023-02-28T13:11:40;102878.63;;;6.91;42.21
58534;BME280;44109;52.398;7.024;2023-02-28T13:14:22;102870.38;;;7.10;42.79
58534;BME280;44109;52.398;7.024;2023-02-28T13:17:10;102866.50;;;7.11;42.35
58534;BME280;44109;52.398;7.024;2023-02-28T13:19:46;102863.00;;;7.05;41.35
58534;BME280;44109;52.398;7.024;2023-02-28T13:22:39;102850.53;;;7.08;40.28
58534;BME280;44109;52.398;7.024;2023-02-28T13:31:31;102863.25;;;7.84;41.18
58534;BME280;44109;52.398;7.024;2023-02-28T13:34:15;102867.59;;;7.91;41.28
58534;BME280;44109;52.398;7.024;2023-02-28T13:36:43;102869.91;;;8.16;41.09